Time;durP1;ratioP1;P1;durP2;ratioP2;P2;SDS_P1;SDS_P2;PMS_P1;PMS_P2;Temp;Humidity;BMP_temperature;BMP_pressure;BME280_temperature;BME280_humidity;BME280_pressure;Samples;Min_cycle;Max_cycle;Signal;HPM_P1;HPM_P2
2021/10/27 00:00:39;;;;;;;37.78;16.35;;;;;;;;;;5018737;28;20025;-86
2021/10/27 00:03:05;;;;;;;29.85;15.98;;;;;;;;;;5018810;28;20099;-86
2021/10/27 00:05:32;;;;;;;34.15;15.27;;;;;;;;;;5019184;28;20060;-85
2021/10/27 00:07:58;;;;;;;28.08;13.35;;;;;;;;;;5018567;28;20041;-85
2021/10/27 00:10:24;;;;;;;31.35;14.57;;;;;;;;;;5036447;28;20029;-86
2021/10/27 00:12:50;;;;;;;31.00;14.88;;;;;;;;;;5018620;28;20025;-85
2021/10/27 00:15:17;;;;;;;31.55;14.27;;;;;;;;;;5018552;28;20137;-86
2021/10/27 00:17:43;;;;;;;27.08;13.30;;;;;;;;;;5018437;28;20030;-85
2021/10/27 00:20:10;;;;;;;30.65;14.05;;;;;;;;;;5036153;28;20036;-84
2021/10/27 00:22:37;;;;;;;26.50;13.27;;;;;;;;;;5035877;28;20485;-86
2021/10/27 00:25:03;;;;;;;27.98;12.82;;;;;;;;;;5018314;28;20390;-84
2021/10/27 00:27:30;;;;;;;30.10;15.48;;;;;;;;;;5018183;28;20034;-87
2021/10/27 00:29:56;;;;;;;31.02;13.70;;;;;;;;;;5018227;28;20029;-85
2021/10/27 00:32:22;;;;;;;33.35;14.15;;;;;;;;;;5018171;28;20470;-86
2021/10/27 00:34:48;;;;;;;35.97;15.55;;;;;;;;;;5018126;28;20095;-85
2021/10/27 00:37:14;;;;;;;29.27;13.70;;;;;;;;;;5018120;28;20029;-85
2021/10/27 00:39:40;;;;;;;30.65;13.75;;;;;;;;;;5018015;28;20037;-85
2021/10/27 00:42:07;;;;;;;29.25;13.98;;;;;;;;;;5017906;28;20360;-86
2021/10/27 00:44:36;;;;;;;28.17;12.90;;;;;;;;;;5016869;28;20026;-86
2021/10/27 00:47:05;;;;;;;28.83;13.38;;;;;;;;;;5017861;28;20084;-85
2021/10/27 00:52:35;;;;;;;26.77;12.60;;;;;;;;;;5035803;28;20569;-84
2021/10/27 00:55:01;;;;;;;24.77;11.95;;;;;;;;;;5017755;28;20021;-85
2021/10/27 00:57:27;;;;;;;25.13;12.13;;;;;;;;;;5035503;28;20453;-86
2021/10/27 00:59:53;;;;;;;28.95;12.18;;;;;;;;;;5017691;28;20470;-86
2021/10/27 01:02:20;;;;;;;20.75;11.23;;;;;;;;;;5017681;28;20029;-85
2021/10/27 01:04:47;;;;;;;19.70;10.88;;;;;;;;;;5017605;28;20021;-85
2021/10/27 01:07:13;;;;;;;25.08;11.15;;;;;;;;;;5017486;28;20041;-83
2021/10/27 01:12:43;;;;;;;20.98;9.15;;;;;;;;;;5035586;28;20024;-84
2021/10/27 01:15:09;;;;;;;21.55;10.60;;;;;;;;;;5035183;28;20072;-84
2021/10/27 01:17:36;;;;;;;22.55;10.88;;;;;;;;;;5035172;28;20474;-85
2021/10/27 01:20:03;;;;;;;27.75;11.40;;;;;;;;;;5017422;28;20052;-86
2021/10/27 01:22:30;;;;;;;23.10;10.73;;;;;;;;;;5017044;28;20470;-83
2021/10/27 01:24:57;;;;;;;25.63;10.52;;;;;;;;;;5017274;28;20433;-86
2021/10/27 01:27:23;;;;;;;29.67;12.52;;;;;;;;;;5017101;28;20041;-85
2021/10/27 01:29:50;;;;;;;27.92;12.98;;;;;;;;;;5017026;28;20022;-84
2021/10/27 01:32:23;;;;;;;22.73;10.07;;;;;;;;;;5034701;28;20402;-87
2021/10/27 01:34:49;;;;;;;20.83;10.85;;;;;;;;;;5017060;28;20025;-84
2021/10/27 01:37:15;;;;;;;18.45;9.63;;;;;;;;;;5016944;28;20098;-85
2021/10/27 01:39:42;;;;;;;20.40;10.05;;;;;;;;;;5016926;28;20029;-85
2021/10/27 01:42:08;;;;;;;24.05;9.30;;;;;;;;;;5016856;28;20025;-86
2021/10/27 01:44:34;;;;;;;17.52;9.00;;;;;;;;;;5034609;28;20037;-85
2021/10/27 01:47:01;;;;;;;24.80;10.50;;;;;;;;;;5016695;28;20036;-84
2021/10/27 01:49:27;;;;;;;21.70;9.60;;;;;;;;;;5034994;28;20033;-85
2021/10/27 01:51:55;;;;;;;16.58;9.05;;;;;;;;;;5016761;28;20034;-85
2021/10/27 01:54:22;;;;;;;22.77;9.93;;;;;;;;;;5016499;28;20043;-86
2021/10/27 01:56:48;;;;;;;18.63;9.18;;;;;;;;;;5034261;28;20057;-84
2021/10/27 01:59:14;;;;;;;20.48;9.38;;;;;;;;;;5016576;28;20079;-85
2021/10/27 02:01:40;;;;;;;25.27;12.73;;;;;;;;;;5034727;28;20025;-83
2021/10/27 02:04:07;;;;;;;27.52;12.60;;;;;;;;;;5034714;28;20022;-84
2021/10/27 02:06:33;;;;;;;26.95;11.93;;;;;;;;;;5016376;28;20037;-85
2021/10/27 02:08:59;;;;;;;22.48;10.55;;;;;;;;;;5016406;28;20099;-85
2021/10/27 02:11:25;;;;;;;25.77;11.50;;;;;;;;;;5016449;28;20018;-85
2021/10/27 02:13:52;;;;;;;21.80;10.93;;;;;;;;;;5033968;28;20029;-85
2021/10/27 02:16:19;;;;;;;22.52;11.15;;;;;;;;;;5016250;28;20078;-85
2021/10/27 02:18:45;;;;;;;22.00;10.57;;;;;;;;;;5034589;28;20040;-86
2021/10/27 02:21:11;;;;;;;21.05;9.82;;;;;;;;;;5034487;28;20057;-85
2021/10/27 02:23:37;;;;;;;19.58;10.15;;;;;;;;;;5016060;28;20410;-86
2021/10/27 02:26:03;;;;;;;22.00;9.63;;;;;;;;;;5016151;28;20524;-84
2021/10/27 02:28:30;;;;;;;16.00;8.38;;;;;;;;;;5016002;28;20122;-85
2021/10/27 02:30:56;;;;;;;22.17;9.23;;;;;;;;;;5033767;28;20044;-85
2021/10/27 02:33:22;;;;;;;23.23;9.57;;;;;;;;;;5015975;28;20029;-85
2021/10/27 02:35:48;;;;;;;22.58;9.52;;;;;;;;;;5015987;28;20067;-85
2021/10/27 02:38:15;;;;;;;21.90;9.82;;;;;;;;;;5016000;28;20433;-86
2021/10/27 02:40:41;;;;;;;24.00;9.77;;;;;;;;;;5015916;28;20036;-87
2021/10/27 02:43:07;;;;;;;25.08;8.93;;;;;;;;;;5015946;28;20036;-85
2021/10/27 02:45:34;;;;;;;22.25;10.18;;;;;;;;;;5033569;28;20028;-84
2021/10/27 02:48:00;;;;;;;22.13;10.75;;;;;;;;;;5033449;28;20037;-84
2021/10/27 02:50:26;;;;;;;22.20;11.10;;;;;;;;;;5033501;28;20029;-85
2021/10/27 02:52:52;;;;;;;22.45;10.23;;;;;;;;;;5016534;28;20029;-85
2021/10/27 02:55:19;;;;;;;22.13;9.65;;;;;;;;;;5015760;28;20025;-84
2021/10/27 02:57:45;;;;;;;19.73;10.20;;;;;;;;;;5015692;28;20493;-85
2021/10/27 03:00:12;;;;;;;21.92;9.80;;;;;;;;;;5033389;28;20014;-84
2021/10/27 03:02:38;;;;;;;27.15;12.68;;;;;;;;;;5015606;28;20033;-84
2021/10/27 03:05:06;;;;;;;23.88;11.00;;;;;;;;;;5034014;28;20466;-85
2021/10/27 03:07:32;;;;;;;27.15;11.23;;;;;;;;;;5035895;28;20482;-85
2021/10/27 03:09:59;;;;;;;20.77;10.73;;;;;;;;;;5038012;28;20362;-85
2021/10/27 03:12:25;;;;;;;20.00;10.77;;;;;;;;;;5019973;28;20115;-84
2021/10/27 03:14:51;;;;;;;24.33;11.35;;;;;;;;;;5037489;28;20081;-85
2021/10/27 03:17:19;;;;;;;21.75;10.90;;;;;;;;;;5019609;28;20031;-85
2021/10/27 03:19:45;;;;;;;21.83;9.07;;;;;;;;;;5019606;28;20030;-84
2021/10/27 03:22:12;;;;;;;22.30;10.13;;;;;;;;;;5037240;28;20053;-84
2021/10/27 03:24:39;;;;;;;25.77;10.82;;;;;;;;;;5016044;28;20054;-84
2021/10/27 03:27:05;;;;;;;21.23;10.00;;;;;;;;;;5017211;28;20040;-84
2021/10/27 03:29:31;;;;;;;21.60;10.18;;;;;;;;;;5017962;28;20033;-85
2021/10/27 03:31:58;;;;;;;26.45;9.63;;;;;;;;;;5015952;28;20025;-85
2021/10/27 03:34:24;;;;;;;24.05;9.93;;;;;;;;;;5017279;28;20105;-84
2021/10/27 03:36:51;;;;;;;23.27;10.90;;;;;;;;;;5015976;28;20025;-85
2021/10/27 03:39:18;;;;;;;26.52;11.40;;;;;;;;;;5017142;28;20109;-85
2021/10/27 03:41:44;;;;;;;22.70;10.82;;;;;;;;;;5015843;28;20037;-84
2021/10/27 03:44:11;;;;;;;20.17;9.82;;;;;;;;;;5017649;28;20026;-85
2021/10/27 03:46:37;;;;;;;25.33;10.00;;;;;;;;;;5015747;28;20026;-86
2021/10/27 03:49:03;;;;;;;27.38;12.38;;;;;;;;;;5015670;28;20037;-85
2021/10/27 03:51:29;;;;;;;17.73;9.73;;;;;;;;;;5016934;28;20025;-86
2021/10/27 03:53:55;;;;;;;21.52;9.45;;;;;;;;;;5015664;28;20057;-85
2021/10/27 03:56:22;;;;;;;31.88;10.98;;;;;;;;;;5016907;28;20040;-84
2021/10/27 03:58:48;;;;;;;21.98;10.25;;;;;;;;;;5015542;28;20079;-84
2021/10/27 04:01:14;;;;;;;23.67;10.00;;;;;;;;;;5015480;28;20058;-85
2021/10/27 04:03:40;;;;;;;20.65;9.07;;;;;;;;;;5015505;28;20125;-85
2021/10/27 04:06:06;;;;;;;22.13;8.55;;;;;;;;;;5017188;28;20504;-84
2021/10/27 04:08:32;;;;;;;22.42;9.32;;;;;;;;;;5015271;28;20092;-85
2021/10/27 04:10:59;;;;;;;24.25;8.43;;;;;;;;;;5016526;28;20026;-84
2021/10/27 04:13:25;;;;;;;20.58;9.98;;;;;;;;;;5015244;28;20029;-84
2021/10/27 04:15:51;;;;;;;22.23;9.07;;;;;;;;;;5015188;28;20121;-86
2021/10/27 04:18:18;;;;;;;18.77;9.57;;;;;;;;;;5016442;28;20022;-85
2021/10/27 04:20:45;;;;;;;21.83;9.05;;;;;;;;;;5016878;28;20071;-85
2021/10/27 04:23:11;;;;;;;17.35;8.73;;;;;;;;;;5014912;28;20046;-85
2021/10/27 04:25:37;;;;;;;18.85;9.98;;;;;;;;;;5015049;28;20433;-85
2021/10/27 04:28:04;;;;;;;24.90;9.95;;;;;;;;;;5014968;28;20395;-84
2021/10/27 04:30:31;;;;;;;22.48;11.00;;;;;;;;;;5016796;28;20061;-84
2021/10/27 04:32:57;;;;;;;22.17;8.88;;;;;;;;;;5014908;28;20029;-84
2021/10/27 04:35:25;;;;;;;22.85;10.70;;;;;;;;;;5014959;28;20419;-85
2021/10/27 04:37:51;;;;;;;18.35;8.82;;;;;;;;;;5014806;28;20029;-85
2021/10/27 04:40:18;;;;;;;18.73;10.05;;;;;;;;;;5014855;28;20025;-84
2021/10/27 04:42:44;;;;;;;22.10;9.75;;;;;;;;;;5014826;28;20033;-85
2021/10/27 04:45:11;;;;;;;18.55;9.90;;;;;;;;;;5014726;28;20029;-84
2021/10/27 04:47:37;;;;;;;23.55;10.02;;;;;;;;;;5014575;28;20033;-85
2021/10/27 04:50:06;;;;;;;20.20;9.98;;;;;;;;;;5014720;28;20034;-83
2021/10/27 04:52:33;;;;;;;19.15;8.90;;;;;;;;;;5014604;28;20029;-83
2021/10/27 04:54:59;;;;;;;23.40;9.98;;;;;;;;;;5015812;28;20022;-82
2021/10/27 04:57:25;;;;;;;21.60;9.98;;;;;;;;;;5014482;28;20033;-85
2021/10/27 04:59:51;;;;;;;17.35;9.13;;;;;;;;;;5014460;28;20087;-84
2021/10/27 05:02:18;;;;;;;22.25;9.45;;;;;;;;;;5014389;28;20368;-88
2021/10/27 05:04:45;;;;;;;24.40;9.95;;;;;;;;;;5014506;28;20368;-87
2021/10/27 05:07:14;;;;;;;22.92;10.82;;;;;;;;;;5014470;28;20026;-86
2021/10/27 05:09:41;;;;;;;30.15;10.45;;;;;;;;;;5014444;28;20030;-86
2021/10/27 05:12:08;;;;;;;26.38;11.60;;;;;;;;;;5015617;28;20072;-86
2021/10/27 05:14:41;;;;;;;24.20;11.52;;;;;;;;;;5015543;28;20442;-85
2021/10/27 05:17:11;;;;;;;;;;;;;;;;;;5016479;28;20040;-85
2021/10/27 05:19:41;;;;;;;23.83;10.18;;;;;;;;;;5014167;28;19959;-88
2021/10/27 05:22:08;;;;;;;21.40;10.70;;;;;;;;;;5014163;28;20026;-87
2021/10/27 05:24:34;;;;;;;24.10;10.52;;;;;;;;;;5014562;28;20046;-87
2021/10/27 05:27:01;;;;;;;23.10;9.80;;;;;;;;;;5013853;28;20030;-85
2021/10/27 05:29:27;;;;;;;29.58;11.27;;;;;;;;;;5029591;28;20451;-84
2021/10/27 05:31:53;;;;;;;32.20;10.23;;;;;;;;;;5032425;28;20025;-84
2021/10/27 05:34:19;;;;;;;27.35;10.00;;;;;;;;;;5033275;28;20116;-86
2021/10/27 05:36:46;;;;;;;25.80;11.70;;;;;;;;;;5013733;28;20065;-85
2021/10/27 05:39:13;;;;;;;30.27;12.55;;;;;;;;;;5013560;28;20029;-84
2021/10/27 05:41:44;;;;;;;27.77;12.00;;;;;;;;;;5013573;28;20509;-85
2021/10/27 05:44:10;;;;;;;24.38;11.00;;;;;;;;;;5013482;28;20113;-85
2021/10/27 05:46:36;;;;;;;33.13;11.55;;;;;;;;;;5015409;28;20030;-85
2021/10/27 05:49:24;;;;;;;27.15;10.88;;;;;;;;;;5033159;28;20040;-85
2021/10/27 05:51:56;;;;;;;28.98;11.60;;;;;;;;;;5034717;28;20359;-85
2021/10/27 05:57:07;;;;;;;34.72;12.15;;;;;;;;;;5034915;28;20083;-85
2021/10/27 05:59:34;;;;;;;24.05;10.57;;;;;;;;;;5034217;28;20091;-85
2021/10/27 06:02:00;;;;;;;25.77;11.27;;;;;;;;;;5032893;28;20466;-85
2021/10/27 06:04:27;;;;;;;34.88;13.45;;;;;;;;;;5032736;28;20037;-86
2021/10/27 06:06:53;;;;;;;31.38;13.95;;;;;;;;;;5033609;28;20099;-86
2021/10/27 06:09:19;;;;;;;30.45;12.95;;;;;;;;;;5032738;28;20033;-85
2021/10/27 06:11:46;;;;;;;33.58;12.82;;;;;;;;;;5034074;28;20528;-85
2021/10/27 06:14:13;;;;;;;40.47;16.73;;;;;;;;;;5032714;28;20033;-87
2021/10/27 06:16:39;;;;;;;34.72;15.75;;;;;;;;;;5034557;28;20368;-85
2021/10/27 06:19:06;;;;;;;29.67;15.15;;;;;;;;;;5034028;28;20025;-88
2021/10/27 06:21:33;;;;;;;54.53;16.02;;;;;;;;;;5033957;28;20029;-86
2021/10/27 06:23:59;;;;;;;34.95;15.18;;;;;;;;;;5037881;28;20465;-86
2021/10/27 06:26:26;;;;;;;27.90;14.82;;;;;;;;;;5016056;28;20564;-85
2021/10/27 06:29:07;;;;;;;34.28;16.70;;;;;;;;;;5033745;28;20030;-85
2021/10/27 06:31:36;;;;;;;32.63;15.77;;;;;;;;;;5016349;28;20029;-85
2021/10/27 06:39:22;;;;;;;35.80;16.23;;;;;;;;;;5033607;28;20026;-85
2021/10/27 06:47:19;;;;;;;35.42;16.83;;;;;;;;;;5033703;28;20036;-83
2021/10/27 06:49:45;;;;;;;36.45;18.55;;;;;;;;;;5015690;28;20033;-86
2021/10/27 06:52:11;;;;;;;35.30;19.60;;;;;;;;;;5015513;28;20057;-85
2021/10/27 06:54:37;;;;;;;38.38;19.17;;;;;;;;;;5015630;28;20029;-83
2021/10/27 06:57:03;;;;;;;30.58;16.67;;;;;;;;;;5033689;28;20025;-84
2021/10/27 07:17:51;;;;;;;21.48;10.50;;;;;;;;;;5033360;28;20386;-84
2021/10/27 07:20:19;;;;;;;18.58;9.95;;;;;;;;;;5015547;28;20017;-88
2021/10/27 07:22:46;;;;;;;20.00;10.30;;;;;;;;;;5015043;28;20107;-86
2021/10/27 07:25:15;;;;;;;19.90;11.05;;;;;;;;;;5034403;28;20021;-87
2021/10/27 07:27:42;;;;;;;18.77;10.32;;;;;;;;;;5053079;28;20040;-89
2021/10/27 07:30:09;;;;;;;25.92;10.80;;;;;;;;;;5052884;28;20021;-84
2021/10/27 07:32:37;;;;;;;17.88;10.88;;;;;;;;;;5035142;28;20120;-85
2021/10/27 07:42:53;;;;;;;20.10;10.07;;;;;;;;;;5052833;28;20386;-85
2021/10/27 07:45:23;;;;;;;23.23;10.77;;;;;;;;;;5052734;28;20147;-85
2021/10/27 07:47:49;;;;;;;20.05;10.18;;;;;;;;;;5034939;28;20037;-85
2021/10/27 07:50:15;;;;;;;18.52;11.45;;;;;;;;;;5034788;28;20438;-87
2021/10/27 07:52:42;;;;;;;19.83;11.85;;;;;;;;;;5036040;28;20026;-87
2021/10/27 07:55:09;;;;;;;16.65;11.32;;;;;;;;;;5038927;28;20469;-88
2021/10/27 07:57:35;;;;;;;19.63;11.95;;;;;;;;;;5038572;28;20031;-87
2021/10/27 08:00:01;;;;;;;17.92;11.00;;;;;;;;;;5038610;28;20025;-84
2021/10/27 08:02:27;;;;;;;18.15;11.23;;;;;;;;;;5038411;28;20029;-88
2021/10/27 08:04:56;;;;;;;18.08;10.77;;;;;;;;;;5039491;28;20025;-87
2021/10/27 08:07:22;;;;;;;19.27;10.10;;;;;;;;;;5038541;28;20025;-86
2021/10/27 08:09:48;;;;;;;17.23;10.38;;;;;;;;;;5038405;28;20064;-88
2021/10/27 08:12:14;;;;;;;19.67;11.73;;;;;;;;;;5056256;28;20100;-84
2021/10/27 08:14:41;;;;;;;18.13;11.55;;;;;;;;;;5038271;28;20029;-85
2021/10/27 08:17:07;;;;;;;16.38;9.98;;;;;;;;;;5038429;28;20025;-85
2021/10/27 08:19:33;;;;;;;17.60;10.50;;;;;;;;;;5056273;28;20021;-84
2021/10/27 08:22:02;;;;;;;14.20;10.05;;;;;;;;;;5038052;28;20032;-83
2021/10/27 08:24:29;;;;;;;16.10;10.85;;;;;;;;;;5042223;28;20104;-81
2021/10/27 08:27:04;;;;;;;16.95;11.65;;;;;;;;;;5036198;28;20029;-82
2021/10/27 08:29:36;;;;;;;19.42;10.93;;;;;;;;;;5018671;28;20026;-83
2021/10/27 08:32:11;;;;;;;22.75;11.80;;;;;;;;;;5018017;28;20065;-83
2021/10/27 08:34:40;;;;;;;19.83;12.60;;;;;;;;;;5018085;28;20072;-83
2021/10/27 08:37:06;;;;;;;15.25;11.32;;;;;;;;;;5017849;28;20024;-83
2021/10/27 08:39:33;;;;;;;19.48;11.52;;;;;;;;;;5035768;28;20107;-82
2021/10/27 08:42:02;;;;;;;18.17;11.65;;;;;;;;;;5017915;28;20109;-82
2021/10/27 08:44:28;;;;;;;19.40;12.43;;;;;;;;;;5035525;28;20029;-82
2021/10/27 08:46:55;;;;;;;20.45;12.18;;;;;;;;;;5035891;28;20072;-82
2021/10/27 08:49:25;;;;;;;19.48;12.07;;;;;;;;;;5017832;28;20068;-82
2021/10/27 08:51:51;;;;;;;21.98;11.43;;;;;;;;;;5017899;28;20022;-82
2021/10/27 08:54:18;;;;;;;27.00;12.77;;;;;;;;;;5034885;28;20061;-82
2021/10/27 08:56:45;;;;;;;18.48;10.57;;;;;;;;;;5017605;28;20037;-82
2021/10/27 08:59:22;;;;;;;17.00;11.32;;;;;;;;;;5017592;28;20040;-82
2021/10/27 09:01:57;;;;;;;17.92;10.93;;;;;;;;;;5035477;28;20017;-82
2021/10/27 10:05:07;;;;;;;17.52;9.07;;;;;;;;;;5054349;28;20044;-85
2021/10/27 10:07:34;;;;;;;15.55;8.88;;;;;;;;;;5036049;28;20094;-85
2021/10/27 10:10:02;;;;;;;15.73;9.52;;;;;;;;;;5036087;28;20021;-85
2021/10/27 10:12:28;;;;;;;17.77;9.07;;;;;;;;;;5053415;28;20029;-85
2021/10/27 10:14:55;;;;;;;11.93;8.25;;;;;;;;;;5035651;28;20039;-85
2021/10/27 10:17:21;;;;;;;15.40;9.32;;;;;;;;;;5035594;28;20051;-85
2021/10/27 10:19:49;;;;;;;18.02;8.75;;;;;;;;;;5036161;28;20443;-86
2021/10/27 10:22:35;;;;;;;16.13;8.85;;;;;;;;;;5053660;28;20029;-85
2021/10/27 10:25:21;;;;;;;13.00;8.07;;;;;;;;;;5014811;28;20462;-85
2021/10/27 10:27:48;;;;;;;11.18;8.70;;;;;;;;;;5012814;28;20018;-85
2021/10/27 10:30:24;;;;;;;11.73;8.38;;;;;;;;;;5012704;28;20027;-86
2021/10/27 10:33:10;;;;;;;14.13;9.00;;;;;;;;;;5012728;28;20048;-85
2021/10/27 10:35:56;;;;;;;10.73;7.97;;;;;;;;;;5012649;28;20121;-85
2021/10/27 10:41:45;;;;;;;15.20;8.23;;;;;;;;;;5015118;28;20026;-85
2021/10/27 10:44:38;;;;;;;13.75;8.75;;;;;;;;;;5012630;28;20042;-88
2021/10/27 10:56:18;;;;;;;16.27;7.68;;;;;;;;;;5014052;28;20067;-86
2021/10/27 10:59:34;;;;;;;13.32;8.07;;;;;;;;;;5031631;28;20044;-85
2021/10/27 11:41:10;;;;;;;8.85;5.20;;;;;;;;;;5036845;28;20175;-85
2021/10/27 11:44:14;;;;;;;11.95;5.82;;;;;;;;;;5019169;28;20421;-89
2021/10/27 11:47:07;;;;;;;8.82;5.97;;;;;;;;;;5018976;28;20057;-86
2021/10/27 11:49:38;;;;;;;;;;;;;;;;;;5037403;28;20072;-87
2021/10/27 11:52:05;;;;;;;11.77;6.68;;;;;;;;;;5018876;28;19911;-86
2021/10/27 11:54:31;;;;;;;11.10;6.32;;;;;;;;;;5018758;28;20393;-85
2021/10/27 11:56:58;;;;;;;8.38;5.85;;;;;;;;;;5018836;28;20087;-85
2021/10/27 11:59:37;;;;;;;9.82;5.13;;;;;;;;;;5018791;28;20069;-85
2021/10/27 12:02:03;;;;;;;9.18;5.45;;;;;;;;;;5018787;28;20021;-87
2021/10/27 12:04:34;;;;;;;14.88;6.60;;;;;;;;;;5018595;28;20084;-85
2021/10/27 12:07:12;;;;;;;12.57;4.93;;;;;;;;;;5036433;28;20053;-84
2021/10/27 12:15:45;;;;;;;13.50;5.85;;;;;;;;;;5023203;28;20103;-86
2021/10/27 12:18:12;;;;;;;11.77;6.53;;;;;;;;;;5018413;28;20041;-86
2021/10/27 12:20:46;;;;;;;10.25;6.32;;;;;;;;;;5018148;28;20029;-87
2021/10/27 12:23:22;;;;;;;11.27;6.43;;;;;;;;;;5038186;28;20057;-85
2021/10/27 12:25:51;;;;;;;13.45;6.80;;;;;;;;;;5038137;28;20535;-85
2021/10/27 12:28:33;;;;;;;12.23;6.90;;;;;;;;;;5038023;28;20067;-85
2021/10/27 12:31:13;;;;;;;10.32;6.47;;;;;;;;;;5037872;28;20416;-85
2021/10/27 12:33:40;;;;;;;12.10;7.10;;;;;;;;;;5038084;28;20029;-86
2021/10/27 12:36:13;;;;;;;13.93;7.07;;;;;;;;;;5037956;28;20025;-85
2021/10/27 12:38:40;;;;;;;14.13;6.72;;;;;;;;;;5037397;28;20041;-86
2021/10/27 12:41:22;;;;;;;13.25;6.80;;;;;;;;;;5036912;28;20378;-85
2021/10/27 12:43:48;;;;;;;13.35;6.75;;;;;;;;;;5037738;28;20027;-86
2021/10/27 12:46:22;;;;;;;14.90;7.43;;;;;;;;;;5055656;28;20037;-86
2021/10/27 12:48:48;;;;;;;12.20;7.35;;;;;;;;;;5037793;28;20079;-85
2021/10/27 12:51:14;;;;;;;12.18;6.15;;;;;;;;;;5037666;28;20068;-85
2021/10/27 12:53:45;;;;;;;13.30;6.65;;;;;;;;;;5055460;28;20029;-85
2021/10/27 12:56:17;;;;;;;11.68;6.47;;;;;;;;;;5055405;28;20100;-86
2021/10/27 12:58:50;;;;;;;11.97;6.30;;;;;;;;;;5055708;28;20466;-87
2021/10/27 13:04:13;;;;;;;11.07;6.50;;;;;;;;;;5055431;28;20082;-87
2021/10/27 13:15:07;;;;;;;9.38;6.10;;;;;;;;;;5036050;28;20037;-85
2021/10/27 13:30:53;;;;;;;14.82;6.07;;;;;;;;;;5055694;28;20090;-87
2021/10/27 13:33:21;;;;;;;10.45;5.93;;;;;;;;;;5037963;28;20120;-88
2021/10/27 13:35:49;;;;;;;11.25;6.28;;;;;;;;;;5041632;28;20440;-87
2021/10/27 13:38:31;;;;;;;10.00;5.72;;;;;;;;;;5042658;28;20252;-86
2021/10/27 13:40:58;;;;;;;11.43;6.05;;;;;;;;;;5054638;28;20104;-86
2021/10/27 13:44:10;;;;;;;11.45;6.13;;;;;;;;;;5048397;28;20382;-84
2021/10/27 14:08:22;;;;;;;14.70;7.32;;;;;;;;;;5034482;28;20028;-87
2021/10/27 14:11:01;;;;;;;14.77;7.55;;;;;;;;;;5016533;28;20393;-87
2021/10/27 14:18:39;;;;;;;12.43;6.82;;;;;;;;;;5034446;28;20080;-87
2021/10/27 14:40:30;;;;;;;16.08;6.40;;;;;;;;;;5034225;28;20074;-87
2021/10/27 14:51:17;;;;;;;14.00;6.35;;;;;;;;;;5034771;28;20033;-91
2021/10/27 15:21:10;;;;;;;13.98;6.07;;;;;;;;;;5034200;28;20071;-89
2021/10/27 15:23:56;;;;;;;18.08;6.00;;;;;;;;;;5012479;28;20077;-84
2021/10/27 15:29:15;;;;;;;17.02;6.55;;;;;;;;;;5013844;28;20040;-86
2021/10/27 15:32:31;;;;;;;13.75;5.53;;;;;;;;;;5014212;28;20028;-88
2021/10/27 15:34:45;;;;;;;9.98;5.18;;;;;;;;;;5003214;28;20034;-86
2021/10/27 15:42:57;;;;;;;14.32;4.97;;;;;;;;;;5013734;28;20438;-91
2021/10/27 15:50:48;;;;;;;10.95;5.10;;;;;;;;;;5013912;28;20056;-92
2021/10/27 15:53:15;;;;;;;10.00;5.18;;;;;;;;;;5012495;28;20103;-85
2021/10/27 15:55:41;;;;;;;10.23;5.07;;;;;;;;;;5012336;28;20029;-89
2021/10/27 15:58:07;;;;;;;12.60;5.47;;;;;;;;;;5012411;28;20128;-86
2021/10/27 16:00:38;;;;;;;9.63;5.18;;;;;;;;;;5013736;28;20029;-87
2021/10/27 16:03:05;;;;;;;12.63;5.38;;;;;;;;;;5012651;28;20125;-86
2021/10/27 16:05:31;;;;;;;12.07;5.82;;;;;;;;;;5012131;28;20478;-87
2021/10/27 16:07:57;;;;;;;13.10;6.50;;;;;;;;;;5012138;28;20033;-86
2021/10/27 16:10:23;;;;;;;9.98;5.65;;;;;;;;;;5012059;28;20041;-87
2021/10/27 16:12:51;;;;;;;10.25;4.88;;;;;;;;;;5013810;28;20053;-84
2021/10/27 16:15:24;;;;;;;11.38;5.03;;;;;;;;;;5015023;28;20030;-85
2021/10/27 16:17:52;;;;;;;8.98;4.90;;;;;;;;;;5015451;28;20097;-86
2021/10/27 16:20:18;;;;;;;11.05;6.30;;;;;;;;;;5015595;28;20040;-91
2021/10/27 16:22:46;;;;;;;13.98;7.00;;;;;;;;;;5017430;28;20029;-88
2021/10/27 16:25:12;;;;;;;17.55;7.22;;;;;;;;;;5019356;28;20037;-85
2021/10/27 16:27:38;;;;;;;14.07;6.25;;;;;;;;;;5019267;28;20026;-88
2021/10/27 16:30:05;;;;;;;12.60;6.15;;;;;;;;;;5018939;28;20056;-85
2021/10/27 16:32:31;;;;;;;11.23;6.28;;;;;;;;;;5018524;28;20486;-89
2021/10/27 16:34:58;;;;;;;16.45;7.00;;;;;;;;;;5018945;28;20029;-88
2021/10/27 16:37:25;;;;;;;12.75;6.38;;;;;;;;;;5018853;28;20025;-86
2021/10/27 16:39:51;;;;;;;20.25;7.35;;;;;;;;;;5018961;28;20038;-86
2021/10/27 16:42:17;;;;;;;16.05;7.13;;;;;;;;;;5018541;28;20028;-88
2021/10/27 16:44:43;;;;;;;15.90;6.88;;;;;;;;;;5018893;28;20033;-87
2021/10/27 16:47:10;;;;;;;14.43;6.75;;;;;;;;;;5018888;28;20022;-86
2021/10/27 16:49:36;;;;;;;13.70;6.93;;;;;;;;;;5018794;28;20528;-84
2021/10/27 16:52:02;;;;;;;16.25;7.82;;;;;;;;;;5018584;28;20072;-86
2021/10/27 16:54:28;;;;;;;25.55;7.30;;;;;;;;;;5036033;28;20030;-86
2021/10/27 16:56:54;;;;;;;15.43;7.10;;;;;;;;;;5018113;28;20026;-87
2021/10/27 16:59:20;;;;;;;23.15;7.13;;;;;;;;;;5036152;28;20033;-86
2021/10/27 17:01:46;;;;;;;19.23;7.47;;;;;;;;;;5017847;28;20032;-85
2021/10/27 17:04:13;;;;;;;13.65;7.75;;;;;;;;;;5019368;28;20048;-90
2021/10/27 17:06:40;;;;;;;16.30;7.65;;;;;;;;;;5018325;28;20520;-88
2021/10/27 17:09:06;;;;;;;15.38;7.68;;;;;;;;;;5018358;28;20438;-87
2021/10/27 17:11:33;;;;;;;17.27;8.77;;;;;;;;;;5018281;28;20049;-91
2021/10/27 17:13:59;;;;;;;22.58;8.82;;;;;;;;;;5018210;28;20030;-89
2021/10/27 17:16:25;;;;;;;17.85;8.73;;;;;;;;;;5018121;28;20034;-87
2021/10/27 17:18:51;;;;;;;23.58;8.25;;;;;;;;;;5035721;28;20034;-87
2021/10/27 17:21:18;;;;;;;26.55;9.52;;;;;;;;;;5035748;28;20029;-90
2021/10/27 17:23:48;;;;;;;20.65;8.88;;;;;;;;;;5014449;28;20060;-88
2021/10/27 17:26:14;;;;;;;22.35;7.85;;;;;;;;;;5014122;28;20033;-88
2021/10/27 17:28:41;;;;;;;18.35;7.82;;;;;;;;;;5015858;28;20072;-87
2021/10/27 17:31:07;;;;;;;16.52;8.02;;;;;;;;;;5014528;28;20033;-88
2021/10/27 17:33:33;;;;;;;14.90;7.88;;;;;;;;;;5014869;28;20141;-88
2021/10/27 17:36:01;;;;;;;16.40;7.50;;;;;;;;;;5014608;28;20064;-89
2021/10/27 17:38:29;;;;;;;24.85;7.60;;;;;;;;;;5015700;28;20033;-91
2021/10/27 17:40:55;;;;;;;14.93;7.95;;;;;;;;;;5014525;28;20057;-90
2021/10/27 17:43:22;;;;;;;15.27;7.60;;;;;;;;;;5014625;28;20025;-86
2021/10/27 17:45:48;;;;;;;19.60;6.72;;;;;;;;;;5016248;28;20033;-86
2021/10/27 17:58:30;;;;;;;13.55;6.60;;;;;;;;;;5023624;28;20053;-87
2021/10/27 18:00:56;;;;;;;16.80;6.38;;;;;;;;;;5027549;28;20041;-89
2021/10/27 18:03:23;;;;;;;15.38;6.97;;;;;;;;;;5033234;28;20032;-87
2021/10/27 18:05:49;;;;;;;16.83;7.45;;;;;;;;;;5036324;28;20033;-86
2021/10/27 18:08:19;;;;;;;15.80;7.10;;;;;;;;;;5033513;28;20033;-87
2021/10/27 18:10:49;;;;;;;12.80;7.00;;;;;;;;;;5034344;28;20052;-88
2021/10/27 18:13:19;;;;;;;14.10;7.05;;;;;;;;;;5033321;28;20029;-86
2021/10/27 18:15:49;;;;;;;14.15;6.80;;;;;;;;;;5021818;28;20504;-88
2021/10/27 18:18:30;;;;;;;18.65;7.55;;;;;;;;;;5024051;28;20037;-88
2021/10/27 18:20:57;;;;;;;16.13;6.90;;;;;;;;;;5007710;28;20372;-87
2021/10/27 18:39:45;;;;;;;20.75;7.70;;;;;;;;;;5024081;28;20074;-87
2021/10/27 18:42:13;;;;;;;15.88;8.00;;;;;;;;;;5023325;28;20486;-86
2021/10/27 18:44:39;;;;;;;14.52;7.28;;;;;;;;;;5022409;28;20367;-87
2021/10/27 18:47:06;;;;;;;17.80;8.25;;;;;;;;;;5021569;28;20426;-84
2021/10/27 18:49:33;;;;;;;18.05;8.27;;;;;;;;;;5020021;28;20053;-90
2021/10/27 18:54:44;;;;;;;18.38;7.90;;;;;;;;;;5024026;28;20439;-90
2021/10/27 18:57:15;;;;;;;14.68;7.53;;;;;;;;;;5020335;28;20029;-89
2021/10/27 18:59:48;;;;;;;12.85;7.25;;;;;;;;;;5018795;28;20042;-89
2021/10/27 19:13:02;;;;;;;14.27;7.15;;;;;;;;;;5014364;28;20064;-88
2021/10/27 19:15:37;;;;;;;13.35;7.10;;;;;;;;;;5013407;28;20022;-90
2021/10/27 19:18:04;;;;;;;14.13;7.03;;;;;;;;;;5011971;28;20026;-88
2021/10/27 19:20:32;;;;;;;14.35;7.68;;;;;;;;;;5013471;28;20034;-90
2021/10/27 19:22:58;;;;;;;26.67;8.80;;;;;;;;;;5014390;28;20037;-89
2021/10/27 19:31:28;;;;;;;17.80;8.30;;;;;;;;;;5033180;28;20125;-90
2021/10/27 20:20:27;;;;;;;15.30;6.68;;;;;;;;;;5036355;28;20087;-90
2021/10/27 20:30:56;;;;;;;17.25;8.35;;;;;;;;;;4986541;28;20480;-90
2021/10/27 20:48:43;;;;;;;14.40;7.70;;;;;;;;;;4996799;28;20040;-92
2021/10/27 20:50:24;;;;;;;16.17;8.30;;;;;;;;;;4996688;28;20411;-92
2021/10/27 20:55:24;;;;;;;16.02;7.13;;;;;;;;;;4996493;28;20034;-91
2021/10/27 21:13:39;;;;;;;12.88;6.15;;;;;;;;;;4996348;28;20037;-92
2021/10/27 21:16:05;;;;;;;11.93;6.25;;;;;;;;;;4995216;28;20034;-93
2021/10/27 21:18:32;;;;;;;15.20;7.00;;;;;;;;;;4995848;28;20038;-93
2021/10/27 21:20:58;;;;;;;17.00;6.95;;;;;;;;;;4994425;28;20026;-94
2021/10/27 21:23:24;;;;;;;13.75;7.15;;;;;;;;;;5000648;28;20089;-91
2021/10/27 21:25:51;;;;;;;16.77;7.93;;;;;;;;;;5014076;28;20421;-92
2021/10/27 21:28:30;;;;;;;16.30;7.90;;;;;;;;;;5013893;28;20038;-94
2021/10/27 21:33:35;;;;;;;18.50;9.30;;;;;;;;;;5015121;28;20534;-88